Time;durP1;ratioP1;P1;durP2;ratioP2;P2;SDS_P1;SDS_P2;PMS_P1;PMS_P2;Temp;Humidity;BMP_temperature;BMP_pressure;BME280_temperature;BME280_humidity;BME280_pressure;Samples;Min_cycle;Max_cycle;Signal;HPM_P1;HPM_P2
2023/08/16 00:00:59;;;;;;;4.20;2.20;;;20.80;92.50;;;;;;6124570;23;20006;-82
2023/08/16 00:03:25;;;;;;;2.75;1.85;;;20.70;92.50;;;;;;6125802;23;19998;-88
2023/08/16 00:05:52;;;;;;;3.35;1.88;;;20.80;92.40;;;;;;6124562;23;20093;-82
2023/08/16 00:08:18;;;;;;;3.78;2.03;;;20.80;92.40;;;;;;6126266;23;20064;-82
2023/08/16 00:10:43;;;;;;;2.95;1.80;;;20.80;92.30;;;;;;6124305;23;19998;-82
2023/08/16 00:13:09;;;;;;;3.45;1.88;;;20.80;92.30;;;;;;6125946;23;20026;-82
2023/08/16 00:15:34;;;;;;;2.95;1.98;;;20.90;92.30;;;;;;6125676;23;20013;-82
2023/08/16 00:18:00;;;;;;;3.33;2.00;;;20.80;92.30;;;;;;6124522;23;20005;-85
2023/08/16 00:20:27;;;;;;;3.38;1.90;;;20.80;92.30;;;;;;6123859;23;20016;-82
2023/08/16 00:22:53;;;;;;;3.28;1.90;;;20.80;92.20;;;;;;6125662;23;20002;-82
2023/08/16 00:25:19;;;;;;;3.22;2.10;;;20.80;92.30;;;;;;6124381;23;20005;-82
2023/08/16 00:27:44;;;;;;;3.38;1.90;;;20.80;92.30;;;;;;6125894;23;20456;-83
2023/08/16 00:30:10;;;;;;;3.15;1.80;;;20.80;92.30;;;;;;6124457;23;20416;-82
2023/08/16 00:32:37;;;;;;;2.67;1.90;;;20.80;92.40;;;;;;6125705;23;20385;-82
2023/08/16 00:35:03;;;;;;;3.00;1.95;;;20.80;92.40;;;;;;6124213;23;20006;-81
2023/08/16 00:37:28;;;;;;;3.78;1.90;;;20.80;92.50;;;;;;6124420;23;20386;-82
2023/08/16 00:39:54;;;;;;;3.55;1.90;;;20.70;92.50;;;;;;6125932;23;19998;-82
2023/08/16 00:42:19;;;;;;;3.30;2.00;;;20.70;92.50;;;;;;6125849;23;20006;-82
2023/08/16 00:44:45;;;;;;;3.67;1.92;;;20.70;92.50;;;;;;6124221;23;20009;-81
2023/08/16 00:47:12;;;;;;;3.55;2.03;;;20.70;92.50;;;;;;6124239;23;20005;-82
2023/08/16 00:49:39;;;;;;;3.40;2.08;;;20.70;92.50;;;;;;6125935;23;20047;-82
2023/08/16 00:52:05;;;;;;;4.90;2.10;;;20.70;92.60;;;;;;6124095;23;20010;-82
2023/08/16 00:54:31;;;;;;;3.67;2.15;;;20.70;92.60;;;;;;6123843;23;20088;-82
2023/08/16 00:56:58;;;;;;;3.80;2.20;;;20.60;92.50;;;;;;6125766;23;20354;-82
2023/08/16 00:59:26;;;;;;;3.25;2.00;;;20.70;92.60;;;;;;6124412;23;20017;-82
2023/08/16 01:01:51;;;;;;;3.75;2.05;;;20.70;92.60;;;;;;6125565;23;20089;-82
2023/08/16 01:04:17;;;;;;;2.53;1.75;;;20.60;92.80;;;;;;6125847;23;20037;-81
2023/08/16 01:06:43;;;;;;;3.35;1.85;;;20.70;92.60;;;;;;6125658;23;20073;-82
2023/08/16 01:09:09;;;;;;;3.63;1.98;;;20.70;92.60;;;;;;6125639;23;19994;-83
2023/08/16 01:12:03;;;;;;;3.78;1.85;;;20.60;92.60;;;;;;6124192;23;20009;-84
2023/08/16 01:14:50;;;;;;;3.22;1.90;;;20.70;92.60;;;;;;6124019;23;20468;-82
2023/08/16 01:17:18;;;;;;;3.03;1.80;;;20.60;92.60;;;;;;6125747;23;20002;-82
2023/08/16 01:19:45;;;;;;;2.95;1.75;;;20.70;92.60;;;;;;6124079;23;20417;-83
2023/08/16 01:22:31;;;;;;;4.45;2.20;;;20.70;92.60;;;;;;6125062;23;20070;-82
2023/08/16 01:25:29;;;;;;;4.53;1.98;;;20.70;92.60;;;;;;6125439;23;20058;-82
2023/08/16 01:27:56;;;;;;;2.97;1.80;;;20.60;92.50;;;;;;6125555;23;20057;-82
2023/08/16 01:30:22;;;;;;;3.45;2.03;;;20.70;92.50;;;;;;6123965;23;20070;-82
2023/08/16 01:32:47;;;;;;;3.47;1.90;;;20.70;92.50;;;;;;6125385;23;20065;-82
2023/08/16 01:35:14;;;;;;;3.20;1.75;;;20.80;92.50;;;;;;6123784;23;20010;-82
2023/08/16 01:37:42;;;;;;;2.58;1.88;;;20.80;92.50;;;;;;6123938;23;20026;-84
2023/08/16 01:40:08;;;;;;;3.70;2.00;;;20.80;92.40;;;;;;6125487;23;20425;-82
2023/08/16 01:42:40;;;;;;;3.55;2.00;;;20.80;92.40;;;;;;6123864;23;20369;-82
2023/08/16 01:45:07;;;;;;;3.42;2.05;;;20.80;92.30;;;;;;6125779;23;20333;-82
2023/08/16 01:47:33;;;;;;;2.50;1.80;;;20.80;92.30;;;;;;6124081;23;20034;-81
2023/08/16 01:50:00;;;;;;;5.03;2.15;;;20.80;92.30;;;;;;6124038;23;20010;-82
2023/08/16 01:52:27;;;;;;;4.07;2.05;;;20.80;92.30;;;;;;6125383;23;20037;-82
2023/08/16 01:54:53;;;;;;;3.90;2.40;;;20.80;92.30;;;;;;6123830;23;20441;-84
2023/08/16 01:57:18;;;;;;;4.53;2.13;;;20.80;92.30;;;;;;6123989;23;20013;-82
2023/08/16 01:59:44;;;;;;;3.70;2.20;;;20.80;92.40;;;;;;6123949;23;20013;-82
2023/08/16 02:02:09;;;;;;;3.63;1.90;;;20.90;92.50;;;;;;6125386;23;20017;-83
2023/08/16 02:04:35;;;;;;;3.13;2.17;;;20.70;92.50;;;;;;6125283;23;20013;-82
2023/08/16 02:07:00;;;;;;;3.47;2.10;;;20.70;92.50;;;;;;6127349;23;19998;-82
2023/08/16 02:09:26;;;;;;;2.78;1.92;;;20.70;92.50;;;;;;6127329;23;19998;-82
2023/08/16 02:11:52;;;;;;;4.43;2.20;;;20.70;92.50;;;;;;6127161;23;20006;-82
2023/08/16 02:14:17;;;;;;;3.30;2.05;;;20.70;92.50;;;;;;6126929;23;20032;-82
2023/08/16 02:16:43;;;;;;;3.35;2.10;;;20.60;92.50;;;;;;6125484;23;20006;-82
2023/08/16 02:19:08;;;;;;;3.08;1.90;;;20.60;92.50;;;;;;6126965;23;20006;-83
2023/08/16 02:21:34;;;;;;;4.05;2.33;;;20.70;92.60;;;;;;6126638;23;20002;-82
2023/08/16 02:23:59;;;;;;;3.42;1.95;;;20.70;92.60;;;;;;6125250;23;20006;-82
2023/08/16 02:26:25;;;;;;;4.55;1.90;;;20.70;92.60;;;;;;6127100;23;19998;-83
2023/08/16 02:28:51;;;;;;;3.78;2.22;;;20.60;92.60;;;;;;6125630;23;20012;-82
2023/08/16 02:31:17;;;;;;;3.17;2.08;;;20.60;92.60;;;;;;6125422;23;20464;-82
2023/08/16 02:33:43;;;;;;;3.60;2.10;;;20.70;92.60;;;;;;6126681;23;20005;-82
2023/08/16 02:36:08;;;;;;;3.38;2.00;;;20.60;92.60;;;;;;6125666;23;20010;-81
2023/08/16 02:38:34;;;;;;;4.13;2.15;;;20.60;92.60;;;;;;6125593;23;20093;-82
2023/08/16 02:41:00;;;;;;;3.25;1.98;;;20.60;92.60;;;;;;6126821;23;20073;-82
2023/08/16 02:43:26;;;;;;;3.53;2.22;;;20.70;92.60;;;;;;6125158;23;20006;-81
2023/08/16 02:45:52;;;;;;;3.47;2.00;;;20.60;92.60;;;;;;6125055;23;20006;-82
2023/08/16 02:48:18;;;;;;;3.15;1.90;;;20.60;92.60;;;;;;6126897;23;19998;-82
2023/08/16 02:50:44;;;;;;;4.07;2.40;;;20.60;92.60;;;;;;6126893;23;20010;-82
2023/08/16 02:53:09;;;;;;;4.32;2.00;;;20.60;92.80;;;;;;6126715;23;20109;-81
2023/08/16 02:55:35;;;;;;;4.70;2.10;;;20.70;92.60;;;;;;6126694;23;20002;-81
2023/08/16 02:58:00;;;;;;;3.90;2.20;;;20.70;92.60;;;;;;6125371;23;20429;-83
2023/08/16 03:00:26;;;;;;;4.65;2.22;;;20.70;92.60;;;;;;6125194;23;20081;-82
2023/08/16 03:02:51;;;;;;;3.85;2.30;;;20.70;92.50;;;;;;6125059;23;20377;-82
2023/08/16 03:05:17;;;;;;;3.38;2.00;;;20.70;92.50;;;;;;6124940;23;20033;-82
2023/08/16 03:07:43;;;;;;;3.78;2.30;;;20.70;92.50;;;;;;6126367;23;20452;-82
2023/08/16 03:10:08;;;;;;;4.10;2.15;;;20.80;92.40;;;;;;6126858;23;20009;-81
2023/08/16 03:12:34;;;;;;;3.53;2.30;;;20.90;92.40;;;;;;6126552;23;20532;-82
2023/08/16 03:14:59;;;;;;;3.92;2.30;;;20.80;92.40;;;;;;6126393;23;20077;-82
2023/08/16 03:17:26;;;;;;;4.00;2.13;;;20.80;92.40;;;;;;6126507;23;20004;-82
2023/08/16 03:19:52;;;;;;;3.28;2.10;;;20.80;92.30;;;;;;6125232;23;20006;-82
2023/08/16 03:22:17;;;;;;;3.50;1.90;;;20.80;92.30;;;;;;6124500;23;20017;-83
2023/08/16 03:24:43;;;;;;;3.42;2.15;;;20.80;92.30;;;;;;6124807;23;19998;-82
2023/08/16 03:27:08;;;;;;;3.58;2.30;;;20.80;92.40;;;;;;6122372;23;20013;-81
2023/08/16 03:29:34;;;;;;;3.20;2.20;;;20.70;92.40;;;;;;6123202;23;20006;-84
2023/08/16 03:53:11;;;;;;;3.00;1.90;;;20.60;92.60;;;;;;6009325;23;20068;-84
2023/08/16 04:09:24;;;;;;;3.30;2.17;;;20.60;92.60;;;;;;6155521;23;20064;-81
2023/08/16 04:52:30;;;;;;;4.13;2.10;;;20.80;92.40;;;;;;6044012;23;20352;-85
2023/08/16 04:54:56;;;;;;;3.30;2.08;;;20.90;92.40;;;;;;6129913;23;20001;-82
2023/08/16 04:57:21;;;;;;;3.45;2.10;;;20.70;92.40;;;;;;6129696;23;20012;-82
2023/08/16 05:00:41;;;;;;;3.75;2.33;;;20.80;92.40;;;;;;6154127;23;20048;-83
2023/08/16 05:04:08;;;;;;;3.92;2.40;;;20.70;92.50;;;;;;6119849;23;20077;-82
2023/08/16 05:09:25;;;;;;;3.40;2.08;;;20.60;92.60;;;;;;6082115;23;19900;-81
2023/08/16 05:11:50;;;;;;;3.22;2.17;;;20.80;92.60;;;;;;6128980;23;20455;-81
2023/08/16 05:14:16;;;;;;;4.32;2.55;;;20.60;92.60;;;;;;6155265;23;20001;-81
2023/08/16 05:16:41;;;;;;;3.75;2.20;;;20.80;92.60;;;;;;6129540;23;20006;-81
2023/08/16 05:19:07;;;;;;;3.33;2.10;;;20.60;92.60;;;;;;6129624;23;20593;-81
2023/08/16 05:21:32;;;;;;;3.58;2.20;;;20.60;92.60;;;;;;6129247;23;20009;-81
2023/08/16 05:23:58;;;;;;;3.67;2.28;;;20.60;92.60;;;;;;6128395;23;19998;-81
2023/08/16 05:26:23;;;;;;;4.07;2.45;;;20.60;92.60;;;;;;6129088;23;20002;-81
2023/08/16 05:28:48;;;;;;;3.67;2.40;;;20.60;92.60;;;;;;6155312;23;20032;-81
2023/08/16 05:31:15;;;;;;;4.22;2.75;;;20.60;92.60;;;;;;6155160;23;20035;-81
2023/08/16 05:33:40;;;;;;;4.28;2.50;;;20.60;92.90;;;;;;6128180;23;20009;-81
2023/08/16 05:36:07;;;;;;;3.85;2.20;;;20.60;92.60;;;;;;6155228;23;20085;-81
2023/08/16 05:38:33;;;;;;;4.13;2.40;;;20.60;92.60;;;;;;6155015;23;20002;-81
2023/08/16 05:40:58;;;;;;;3.72;2.22;;;20.60;92.60;;;;;;6130263;23;20330;-81
2023/08/16 05:43:24;;;;;;;3.78;2.30;;;20.60;92.60;;;;;;6130453;23;20013;-81
2023/08/16 05:45:50;;;;;;;4.30;2.40;;;20.60;92.60;;;;;;6130731;23;20096;-81
2023/08/16 05:48:15;;;;;;;4.05;2.30;;;20.60;92.60;;;;;;6131179;23;20337;-80
2023/08/16 05:50:41;;;;;;;3.58;2.28;;;20.60;92.60;;;;;;6130972;23;20430;-81
2023/08/16 05:53:07;;;;;;;3.80;2.35;;;20.60;92.60;;;;;;6156408;23;20017;-81
2023/08/16 05:55:32;;;;;;;4.53;2.50;;;20.60;92.60;;;;;;6131950;23;20511;-82
2023/08/16 05:57:58;;;;;;;4.38;2.30;;;20.60;92.60;;;;;;6139612;23;20005;-82
2023/08/16 06:00:23;;;;;;;3.88;2.35;;;20.60;92.60;;;;;;6137186;23;20081;-82
2023/08/16 06:02:49;;;;;;;4.47;2.50;;;20.70;92.50;;;;;;6137245;23;20397;-82
2023/08/16 06:05:15;;;;;;;3.30;2.30;;;20.70;92.50;;;;;;6136446;23;20061;-82
2023/08/16 06:07:40;;;;;;;3.45;2.30;;;20.70;92.40;;;;;;6137137;23;20008;-81
2023/08/16 06:10:06;;;;;;;5.43;2.50;;;20.70;92.40;;;;;;6136407;23;20523;-82
2023/08/16 06:12:32;;;;;;;3.67;2.10;;;20.70;92.30;;;;;;6136504;23;20005;-81
2023/08/16 06:14:58;;;;;;;4.38;2.40;;;20.80;92.40;;;;;;6135055;23;20013;-82
2023/08/16 06:17:24;;;;;;;4.38;2.28;;;20.80;92.30;;;;;;6139561;23;20005;-81
2023/08/16 06:19:49;;;;;;;3.88;2.40;;;20.80;92.30;;;;;;6138709;23;20005;-82
2023/08/16 06:22:15;;;;;;;3.75;2.35;;;20.80;92.20;;;;;;6137520;23;20006;-82
2023/08/16 06:24:41;;;;;;;3.78;2.22;;;20.80;92.30;;;;;;6136604;23;20091;-82
2023/08/16 06:27:08;;;;;;;3.53;2.30;;;20.80;92.20;;;;;;6137367;23;20002;-82
2023/08/16 06:29:36;;;;;;;3.72;2.25;;;20.80;92.50;;;;;;6136964;23;20004;-81
2023/08/16 06:32:03;;;;;;;3.25;2.17;;;20.70;92.20;;;;;;6162596;23;20049;-82
2023/08/16 06:34:29;;;;;;;3.55;2.08;;;20.70;92.30;;;;;;6135932;23;20006;-81
2023/08/16 06:36:54;;;;;;;3.35;2.20;;;20.70;92.30;;;;;;6135660;23;20523;-82
2023/08/16 06:39:20;;;;;;;4.25;2.28;;;20.70;92.30;;;;;;6135803;23;20009;-82
2023/08/16 06:41:46;;;;;;;3.45;2.17;;;20.70;92.40;;;;;;6134943;23;20001;-81
2023/08/16 06:44:11;;;;;;;4.05;2.20;;;20.70;92.40;;;;;;6134253;23;20025;-81
2023/08/16 06:46:37;;;;;;;3.88;2.40;;;20.70;92.40;;;;;;6135327;23;20344;-81
2023/08/16 06:49:03;;;;;;;4.35;2.47;;;20.70;92.40;;;;;;6161207;23;20008;-82
2023/08/16 06:51:28;;;;;;;4.13;2.38;;;20.70;92.60;;;;;;6134548;23;20009;-82
2023/08/16 06:53:54;;;;;;;3.60;2.20;;;20.70;92.40;;;;;;6133373;23;20349;-82
2023/08/16 06:56:19;;;;;;;5.18;2.65;;;20.70;92.40;;;;;;6160751;23;20457;-82
2023/08/16 06:58:45;;;;;;;4.03;2.20;;;20.80;92.40;;;;;;6134224;23;20088;-81
2023/08/16 07:01:11;;;;;;;4.22;2.20;;;20.70;92.40;;;;;;6133410;23;20033;-82
2023/08/16 07:03:37;;;;;;;3.30;2.10;;;20.70;92.40;;;;;;6132921;23;20527;-81
2023/08/16 07:06:02;;;;;;;4.03;2.20;;;20.70;92.40;;;;;;6132966;23;20001;-81
2023/08/16 07:08:28;;;;;;;3.47;2.08;;;20.70;92.50;;;;;;6160167;23;20431;-81
2023/08/16 07:10:56;;;;;;;3.30;2.20;;;20.70;92.40;;;;;;6132941;23;20440;-81
2023/08/16 07:13:22;;;;;;;3.97;2.05;;;20.70;92.40;;;;;;6132269;23;20099;-81
2023/08/16 07:15:47;;;;;;;3.53;2.10;;;20.70;92.40;;;;;;6132109;23;20436;-81
2023/08/16 07:18:13;;;;;;;2.80;1.90;;;20.70;92.40;;;;;;6159332;23;20081;-81
2023/08/16 07:20:39;;;;;;;4.00;2.47;;;20.70;92.40;;;;;;6159127;23;20064;-81
2023/08/16 07:23:06;;;;;;;3.75;2.08;;;20.70;92.40;;;;;;6133221;23;20440;-82
2023/08/16 07:25:32;;;;;;;3.17;2.00;;;20.70;92.40;;;;;;6158530;23;20441;-81
2023/08/16 07:27:57;;;;;;;3.95;2.35;;;20.70;92.30;;;;;;6132101;23;20001;-82
2023/08/16 07:30:23;;;;;;;3.25;2.10;;;20.80;92.30;;;;;;6158583;23;20008;-81
2023/08/16 07:32:49;;;;;;;3.35;2.05;;;20.80;92.30;;;;;;6131404;23;20069;-81
2023/08/16 07:35:14;;;;;;;3.30;2.10;;;20.80;92.20;;;;;;6132117;23;20010;-81
2023/08/16 07:37:40;;;;;;;3.33;2.10;;;20.80;92.10;;;;;;6131532;23;20086;-81
2023/08/16 07:40:06;;;;;;;3.58;2.20;;;20.90;92.10;;;;;;6131121;23;20009;-82
2023/08/16 07:42:32;;;;;;;3.53;1.90;;;20.90;92.10;;;;;;6130453;23;20009;-81
2023/08/16 07:44:59;;;;;;;3.30;1.92;;;20.80;92.00;;;;;;6131093;23;20006;-81
2023/08/16 07:47:25;;;;;;;4.43;2.15;;;20.90;92.00;;;;;;6131213;23;20013;-81
2023/08/16 07:49:50;;;;;;;3.78;2.17;;;20.80;92.00;;;;;;6130978;23;20005;-81
2023/08/16 07:52:16;;;;;;;3.75;2.10;;;20.90;92.00;;;;;;6129859;23;20504;-81
2023/08/16 07:54:42;;;;;;;3.13;1.98;;;20.90;92.00;;;;;;6130487;23;20009;-81
2023/08/16 07:57:07;;;;;;;3.33;2.00;;;20.90;92.00;;;;;;6156550;23;20314;-81
2023/08/16 07:59:33;;;;;;;3.65;2.10;;;20.80;92.10;;;;;;6130368;23;20025;-81
2023/08/16 08:01:58;;;;;;;3.63;2.00;;;20.80;92.10;;;;;;6129555;23;20396;-82
2023/08/16 08:04:24;;;;;;;2.75;1.83;;;20.80;92.10;;;;;;6129649;23;20040;-81
2023/08/16 08:06:49;;;;;;;3.40;1.90;;;20.80;92.20;;;;;;6129623;23;20009;-81
2023/08/16 08:09:15;;;;;;;2.42;1.83;;;20.80;92.20;;;;;;6156690;23;20001;-81
2023/08/16 08:11:40;;;;;;;3.10;1.95;;;20.80;92.20;;;;;;6130200;23;20067;-81
2023/08/16 08:14:06;;;;;;;3.72;2.17;;;20.80;92.20;;;;;;6129259;23;20005;-81
2023/08/16 08:16:32;;;;;;;3.10;2.03;;;20.80;92.20;;;;;;6156203;23;20081;-81
2023/08/16 08:18:57;;;;;;;3.22;1.90;;;20.80;92.20;;;;;;6156016;23;20008;-81
2023/08/16 08:21:23;;;;;;;3.15;1.90;;;20.80;92.20;;;;;;6129716;23;20085;-81
2023/08/16 08:23:49;;;;;;;3.42;2.00;;;20.80;92.20;;;;;;6129328;23;20001;-81
2023/08/16 08:26:16;;;;;;;2.78;1.80;;;20.80;92.20;;;;;;6130105;23;20002;-81
2023/08/16 08:28:41;;;;;;;3.03;1.90;;;20.80;92.20;;;;;;6129453;23;20008;-81
2023/08/16 08:31:07;;;;;;;3.92;2.00;;;20.80;92.10;;;;;;6129550;23;20006;-81
2023/08/16 08:33:32;;;;;;;3.88;2.00;;;20.80;92.10;;;;;;6128932;23;20080;-80
2023/08/16 08:35:58;;;;;;;2.60;1.80;;;20.80;92.10;;;;;;6155718;23;20081;-81
2023/08/16 08:38:23;;;;;;;3.60;2.15;;;20.80;92.10;;;;;;6129410;23;20047;-81
2023/08/16 08:40:59;;;;;;;2.95;1.80;;;20.80;92.10;;;;;;6129616;23;20124;-81
2023/08/16 08:43:31;;;;;;;2.92;1.90;;;20.90;92.10;;;;;;6128994;23;20014;-80
2023/08/16 08:45:58;;;;;;;3.17;1.77;;;20.80;92.10;;;;;;6155648;23;20349;-81
2023/08/16 08:48:27;;;;;;;2.60;1.80;;;20.80;92.10;;;;;;6155361;23;20025;-80
2023/08/16 08:50:54;;;;;;;2.30;1.80;;;20.80;92.10;;;;;;6129263;23;20010;-81
2023/08/16 08:53:23;;;;;;;3.05;1.80;;;20.80;92.10;;;;;;6128624;23;20092;-81
2023/08/16 08:55:52;;;;;;;2.60;1.60;;;20.80;92.10;;;;;;6155057;23;20005;-81
2023/08/16 08:58:19;;;;;;;3.28;1.98;;;20.90;92.10;;;;;;6155710;23;20008;-81
2023/08/16 09:00:46;;;;;;;1.88;1.55;;;20.80;92.10;;;;;;6129100;23;20037;-81
2023/08/16 09:03:12;;;;;;;3.85;1.80;;;20.90;92.10;;;;;;6128767;23;20008;-81
2023/08/16 09:05:39;;;;;;;3.03;1.90;;;20.90;92.00;;;;;;6133014;23;20032;-82
2023/08/16 09:08:05;;;;;;;2.88;1.70;;;20.90;92.00;;;;;;6135541;23;20005;-82
2023/08/16 09:10:38;;;;;;;2.60;1.90;;;20.90;91.90;;;;;;6136338;23;20013;-82
2023/08/16 09:13:09;;;;;;;3.50;1.60;;;21.00;91.90;;;;;;6160565;23;20428;-82
2023/08/16 09:15:35;;;;;;;3.28;1.80;;;20.90;91.80;;;;;;6133871;23;20435;-82
2023/08/16 09:18:07;;;;;;;2.25;1.67;;;21.00;91.90;;;;;;6133498;23;20009;-82
2023/08/16 09:20:33;;;;;;;3.45;1.88;;;20.90;91.80;;;;;;6133233;23;20029;-82
2023/08/16 09:22:58;;;;;;;4.80;2.00;;;21.00;91.90;;;;;;6132240;23;20006;-81
2023/08/16 09:25:24;;;;;;;2.90;1.75;;;20.90;91.90;;;;;;6133792;23;20002;-82
2023/08/16 09:27:52;;;;;;;3.03;1.80;;;20.90;91.90;;;;;;6135624;23;20012;-81
2023/08/16 09:30:18;;;;;;;2.40;1.70;;;20.90;92.00;;;;;;6135266;23;20433;-81
2023/08/16 09:32:45;;;;;;;2.35;1.70;;;20.90;92.00;;;;;;6134927;23;20033;-82
2023/08/16 09:35:16;;;;;;;2.78;1.70;;;20.90;92.00;;;;;;6159595;23;20021;-82
2023/08/16 09:37:43;;;;;;;2.53;1.70;;;20.90;92.00;;;;;;6161750;23;20077;-82
2023/08/16 09:40:11;;;;;;;2.65;1.85;;;20.90;91.90;;;;;;6135132;23;20348;-82
2023/08/16 09:42:37;;;;;;;3.08;1.70;;;21.00;91.90;;;;;;6134195;23;20029;-82
2023/08/16 09:45:03;;;;;;;1.90;1.60;;;21.00;92.00;;;;;;6134529;23;20009;-81
2023/08/16 09:47:30;;;;;;;3.30;1.73;;;20.90;92.10;;;;;;6134164;23;20006;-82
2023/08/16 09:49:57;;;;;;;3.10;1.63;;;20.90;91.90;;;;;;6134250;23;20373;-82
2023/08/16 09:52:22;;;;;;;3.03;1.80;;;20.90;91.90;;;;;;6133514;23;20036;-82
2023/08/16 09:54:49;;;;;;;2.55;1.65;;;20.90;91.90;;;;;;6159773;23;20037;-81
2023/08/16 09:57:16;;;;;;;3.13;1.90;;;20.90;91.90;;;;;;6133945;23;20092;-83
2023/08/16 09:59:42;;;;;;;2.47;1.70;;;20.90;91.90;;;;;;6133697;23;20005;-81
2023/08/16 10:02:11;;;;;;;3.08;1.75;;;20.90;91.90;;;;;;6133133;23;20321;-83
2023/08/16 10:04:37;;;;;;;3.00;1.80;;;20.90;91.90;;;;;;6132636;23;20002;-81
2023/08/16 10:07:04;;;;;;;3.35;2.00;;;20.90;91.90;;;;;;6133441;23;20008;-81
2023/08/16 10:09:33;;;;;;;2.83;1.88;;;20.90;92.00;;;;;;6132337;23;20001;-82
2023/08/16 10:12:02;;;;;;;2.42;1.80;;;20.90;92.00;;;;;;6131467;23;20016;-82
2023/08/16 10:14:29;;;;;;;3.15;1.80;;;20.90;92.00;;;;;;6132064;23;20089;-82
2023/08/16 10:17:00;;;;;;;2.78;1.80;;;20.90;92.00;;;;;;6131727;23;20012;-81
2023/08/16 10:19:31;;;;;;;2.35;1.50;;;20.90;92.10;;;;;;6132141;23;20444;-82
2023/08/16 10:21:58;;;;;;;3.53;1.65;;;20.90;92.10;;;;;;6131774;23;20353;-82
2023/08/16 10:24:25;;;;;;;2.30;1.63;;;20.90;92.10;;;;;;6157481;23;20005;-81
2023/08/16 10:26:53;;;;;;;2.78;1.85;;;20.90;92.00;;;;;;6132676;23;20013;-82
2023/08/16 10:29:22;;;;;;;2.40;1.50;;;20.90;92.00;;;;;;6133189;23;20025;-81
2023/08/16 10:31:51;;;;;;;2.63;1.75;;;21.00;91.90;;;;;;6160640;23;20029;-83
2023/08/16 10:34:20;;;;;;;2.38;1.77;;;21.00;91.80;;;;;;6132730;23;20002;-81
2023/08/16 10:36:46;;;;;;;2.55;1.65;;;21.00;91.80;;;;;;6132903;23;20005;-81
2023/08/16 10:39:22;;;;;;;3.47;1.75;;;21.00;91.70;;;;;;6132471;23;20009;-82
2023/08/16 10:41:50;;;;;;;2.78;1.67;;;21.00;91.60;;;;;;6132576;23;20448;-81
2023/08/16 10:44:23;;;;;;;2.55;1.60;;;21.00;91.60;;;;;;6157436;23;20095;-81
2023/08/16 10:46:50;;;;;;;3.58;1.73;;;21.10;91.60;;;;;;6131728;23;20001;-81
2023/08/16 10:49:16;;;;;;;3.00;1.73;;;21.10;91.60;;;;;;6131565;23;20005;-82
2023/08/16 10:51:46;;;;;;;2.83;1.85;;;21.00;91.60;;;;;;6158644;23;20081;-81
2023/08/16 10:54:12;;;;;;;3.08;1.60;;;21.10;91.60;;;;;;6130810;23;20017;-82
2023/08/16 10:56:47;;;;;;;2.80;1.77;;;21.00;91.60;;;;;;6131852;23;20348;-82
2023/08/16 10:59:13;;;;;;;2.55;1.50;;;21.00;91.70;;;;;;6157756;23;20009;-81
2023/08/16 11:01:50;;;;;;;2.72;1.80;;;21.00;91.70;;;;;;6157479;23;20004;-81
2023/08/16 11:04:16;;;;;;;2.60;1.77;;;21.00;91.80;;;;;;6130124;23;20404;-81
2023/08/16 11:06:43;;;;;;;2.92;1.80;;;21.00;91.80;;;;;;6157841;23;20025;-81
2023/08/16 11:09:09;;;;;;;3.30;1.75;;;20.90;91.80;;;;;;6131095;23;20006;-81
2023/08/16 11:11:35;;;;;;;2.63;1.70;;;21.00;91.80;;;;;;6131059;23;20009;-81
2023/08/16 11:14:01;;;;;;;2.97;1.60;;;21.00;91.90;;;;;;6156536;23;20002;-81
2023/08/16 11:16:27;;;;;;;2.80;1.60;;;21.00;91.90;;;;;;6130717;23;20092;-81
2023/08/16 11:18:53;;;;;;;3.17;1.70;;;20.90;91.90;;;;;;6130583;23;20005;-81
2023/08/16 11:21:19;;;;;;;2.78;1.70;;;20.90;91.90;;;;;;6130389;23;20018;-81
2023/08/16 11:23:45;;;;;;;2.63;1.60;;;20.90;91.90;;;;;;6129955;23;20005;-81
2023/08/16 11:26:11;;;;;;;3.15;1.83;;;20.90;91.90;;;;;;6156660;23;20009;-81
2023/08/16 11:28:39;;;;;;;3.10;1.50;;;20.90;91.90;;;;;;6130410;23;20006;-81
2023/08/16 11:31:06;;;;;;;2.45;1.60;;;20.90;91.90;;;;;;6130233;23;20013;-82
2023/08/16 11:33:37;;;;;;;1.70;1.42;;;20.90;91.90;;;;;;6155768;23;20009;-83
2023/08/16 11:36:15;;;;;;;2.97;1.67;;;20.90;91.90;;;;;;6129853;23;20069;-81
2023/08/16 11:38:41;;;;;;;2.95;1.65;;;20.90;91.90;;;;;;6129553;23;20081;-81
2023/08/16 11:41:06;;;;;;;2.70;1.80;;;20.90;91.90;;;;;;6129837;23;20044;-81
2023/08/16 11:43:34;;;;;;;2.47;1.70;;;20.90;91.90;;;;;;6129408;23;20512;-80
2023/08/16 11:46:01;;;;;;;2.80;1.70;;;21.00;91.90;;;;;;6129912;23;20372;-81
2023/08/16 11:48:29;;;;;;;2.53;1.60;;;21.00;91.90;;;;;;6130095;23;20451;-81
2023/08/16 11:50:56;;;;;;;2.85;1.65;;;21.00;91.90;;;;;;6155859;23;20016;-81
2023/08/16 11:53:29;;;;;;;2.83;1.80;;;21.00;91.80;;;;;;6129132;23;20020;-81
2023/08/16 11:56:08;;;;;;;2.47;1.50;;;21.00;91.80;;;;;;6129804;23;20075;-82
2023/08/16 11:58:48;;;;;;;2.78;1.60;;;21.00;91.70;;;;;;6131443;23;20016;-81
2023/08/16 12:01:15;;;;;;;3.03;1.88;;;21.10;91.60;;;;;;6155892;23;20040;-81
2023/08/16 12:03:43;;;;;;;2.65;1.58;;;21.10;91.60;;;;;;6128989;23;20088;-81
2023/08/16 12:06:11;;;;;;;2.90;1.60;;;21.10;91.50;;;;;;6129775;23;20412;-81
2023/08/16 12:08:52;;;;;;;3.08;1.70;;;21.10;91.40;;;;;;6129845;23;20001;-81
2023/08/16 12:11:34;;;;;;;2.25;1.60;;;21.10;91.40;;;;;;6129613;23;20013;-81
2023/08/16 12:14:03;;;;;;;2.85;1.67;;;21.10;91.40;;;;;;6158240;23;20008;-82
2023/08/16 12:16:29;;;;;;;2.70;1.75;;;21.10;91.40;;;;;;6161963;23;20428;-81
2023/08/16 12:18:56;;;;;;;2.38;1.55;;;21.20;91.40;;;;;;6134526;23;20045;-82
2023/08/16 12:21:22;;;;;;;2.42;1.60;;;21.20;91.40;;;;;;6133881;23;20005;-81
2023/08/16 12:23:47;;;;;;;2.60;1.60;;;21.10;91.40;;;;;;6133806;23;20052;-82
2023/08/16 12:26:16;;;;;;;2.22;1.50;;;21.10;91.40;;;;;;6160056;23;19998;-81
2023/08/16 12:28:42;;;;;;;3.67;1.70;;;21.10;91.50;;;;;;6133250;23;20001;-81
2023/08/16 12:31:07;;;;;;;1.75;1.42;;;21.10;91.50;;;;;;6159593;23;20009;-82
2023/08/16 12:33:33;;;;;;;2.35;1.42;;;21.10;91.60;;;;;;6132556;23;20009;-81
2023/08/16 12:35:59;;;;;;;1.30;1.20;;;21.10;91.60;;;;;;6163522;23;20429;-83
2023/08/16 12:38:24;;;;;;;2.22;1.50;;;21.10;91.60;;;;;;6136352;23;20088;-82
2023/08/16 12:40:50;;;;;;;2.42;1.58;;;21.10;91.60;;;;;;6136825;23;20659;-82
2023/08/16 12:43:15;;;;;;;2.67;1.50;;;21.00;91.60;;;;;;6135043;23;20013;-82
2023/08/16 12:45:41;;;;;;;3.30;1.50;;;21.00;91.60;;;;;;6161492;23;20002;-82
2023/08/16 12:48:06;;;;;;;2.42;1.50;;;21.00;91.60;;;;;;6135222;23;20001;-81
2023/08/16 12:50:32;;;;;;;2.45;1.50;;;21.10;91.70;;;;;;6161271;23;20008;-83
2023/08/16 12:53:01;;;;;;;2.33;1.60;;;21.00;91.60;;;;;;6160460;23;20344;-82
2023/08/16 12:55:27;;;;;;;2.28;1.60;;;21.00;91.60;;;;;;6134109;23;20499;-82
2023/08/16 12:57:53;;;;;;;2.38;1.40;;;21.00;91.60;;;;;;6133944;23;20135;-82
2023/08/16 13:00:19;;;;;;;2.72;1.50;;;21.10;91.60;;;;;;6160831;23;20009;-82
2023/08/16 13:02:44;;;;;;;1.90;1.45;;;21.00;91.60;;;;;;6159998;23;20025;-82
2023/08/16 13:05:10;;;;;;;2.90;1.40;;;21.10;91.60;;;;;;6159293;23;20332;-82
2023/08/16 13:07:36;;;;;;;2.47;1.50;;;21.10;91.60;;;;;;6133393;23;20585;-81
2023/08/16 13:10:06;;;;;;;2.33;1.55;;;21.10;91.60;;;;;;6133095;23;20084;-82
2023/08/16 13:12:31;;;;;;;2.42;1.50;;;21.00;91.60;;;;;;6132587;23;20010;-82
2023/08/16 13:14:57;;;;;;;1.80;1.38;;;21.00;91.60;;;;;;6132923;23;20005;-82
2023/08/16 13:17:23;;;;;;;2.92;1.60;;;21.00;91.70;;;;;;6132479;23;20012;-81
2023/08/16 13:19:49;;;;;;;2.53;1.40;;;21.00;91.70;;;;;;6158569;23;20005;-81
2023/08/16 13:22:14;;;;;;;2.47;1.50;;;21.00;91.70;;;;;;6158943;23;20081;-81
2023/08/16 13:24:40;;;;;;;2.20;1.50;;;21.10;91.70;;;;;;6132060;23;20001;-81
2023/08/16 13:27:05;;;;;;;2.15;1.50;;;21.10;91.90;;;;;;6159373;23;20428;-82
2023/08/16 13:29:31;;;;;;;2.92;1.52;;;21.10;91.60;;;;;;6131881;23;20005;-82
2023/08/16 13:31:57;;;;;;;2.35;1.50;;;21.20;91.50;;;;;;6131427;23;20006;-82
2023/08/16 13:34:23;;;;;;;2.50;1.50;;;21.20;91.40;;;;;;6131789;23;20392;-81
2023/08/16 13:36:49;;;;;;;2.38;1.50;;;21.20;91.40;;;;;;6157931;23;20378;-82
2023/08/16 13:39:15;;;;;;;2.22;1.48;;;21.20;91.40;;;;;;6131530;23;20015;-81
2023/08/16 13:41:41;;;;;;;1.70;1.20;;;21.20;91.30;;;;;;6131745;23;20054;-82
2023/08/16 13:44:06;;;;;;;2.25;1.40;;;21.20;91.30;;;;;;6131011;23;20009;-81
2023/08/16 13:46:32;;;;;;;2.53;1.42;;;21.20;91.30;;;;;;6130367;23;20592;-81
2023/08/16 13:48:58;;;;;;;2.85;1.55;;;21.20;91.30;;;;;;6130489;23;20016;-81
2023/08/16 13:51:24;;;;;;;2.20;1.50;;;21.20;91.30;;;;;;6130141;23;20065;-81
2023/08/16 13:53:49;;;;;;;2.25;1.50;;;21.20;91.30;;;;;;6130211;23;20256;-81
2023/08/16 13:56:15;;;;;;;1.42;1.20;;;21.20;91.40;;;;;;6130329;23;20018;-81
2023/08/16 13:58:40;;;;;;;2.13;1.42;;;21.10;91.40;;;;;;6129974;23;20005;-81
2023/08/16 14:01:06;;;;;;;2.00;1.50;;;21.10;91.50;;;;;;6156807;23;20009;-81
2023/08/16 14:03:31;;;;;;;2.00;1.40;;;21.10;91.50;;;;;;6131214;23;20005;-79
2023/08/16 14:05:58;;;;;;;2.30;1.50;;;21.10;91.60;;;;;;6131336;23;20001;-81